createdAt,value
2023-05-09T00:01:24.547Z,18.50
2023-05-09T00:03:52.405Z,18.47
2023-05-09T00:06:19.894Z,18.43
2023-05-09T00:08:46.688Z,18.36
2023-05-09T00:11:13.350Z,18.32
2023-05-09T00:13:40.168Z,18.31
2023-05-09T00:16:07.156Z,18.30
2023-05-09T00:18:34.124Z,18.31
2023-05-09T00:21:02.489Z,18.31
2023-05-09T00:23:29.060Z,18.30
2023-05-09T00:25:55.823Z,18.26
2023-05-09T00:28:22.549Z,18.19
2023-05-09T00:30:49.218Z,18.18
2023-05-09T00:33:16.266Z,18.16
2023-05-09T00:35:42.869Z,18.10
2023-05-09T00:38:09.597Z,18.08
2023-05-09T00:40:36.540Z,18.08
2023-05-09T00:43:03.303Z,18.07
2023-05-09T00:45:29.956Z,18.06
2023-05-09T00:47:57.708Z,18.08
2023-05-09T00:50:24.994Z,18.14
2023-05-09T00:52:51.830Z,18.19
2023-05-09T00:55:19.820Z,18.22
2023-05-09T00:57:46.506Z,18.24
2023-05-09T01:00:14.108Z,18.17
2023-05-09T01:02:46.730Z,18.12
2023-05-09T01:05:15.340Z,18.11
2023-05-09T01:08:18.171Z,18.11
2023-05-09T01:11:09.464Z,18.08
2023-05-09T01:13:51.680Z,18.06
2023-05-09T01:16:37.582Z,18.01
2023-05-09T01:19:29.389Z,17.98
2023-05-09T01:21:57.181Z,18.01
2023-05-09T01:25:05.672Z,18.02
2023-05-09T01:28:06.703Z,18.05
2023-05-09T01:30:35.995Z,18.09
2023-05-09T01:33:07.269Z,18.13
2023-05-09T01:35:37.455Z,18.16
2023-05-09T01:38:12.605Z,18.19
2023-05-09T01:40:42.482Z,18.22
2023-05-09T01:43:11.268Z,18.26
2023-05-09T01:45:39.514Z,18.28
2023-05-09T01:48:08.805Z,18.31
2023-05-09T01:50:36.204Z,18.33
2023-05-09T01:53:05.846Z,18.35
2023-05-09T01:55:35.365Z,18.31
2023-05-09T01:58:05.070Z,18.28
2023-05-09T02:00:35.479Z,18.28
2023-05-09T02:03:04.156Z,18.31
2023-05-09T02:05:32.418Z,18.29
2023-05-09T02:07:59.480Z,18.28
2023-05-09T02:10:29.963Z,18.29
2023-05-09T02:12:57.888Z,18.28
2023-05-09T02:15:25.985Z,18.29
2023-05-09T02:17:52.698Z,18.30
2023-05-09T02:20:19.524Z,18.31
2023-05-09T02:22:47.136Z,18.30
2023-05-09T02:25:15.869Z,18.31
2023-05-09T02:27:45.418Z,18.30
2023-05-09T02:30:17.501Z,18.29
2023-05-09T02:32:47.304Z,18.29
2023-05-09T02:35:16.481Z,18.30
2023-05-09T02:37:45.421Z,18.29
2023-05-09T02:40:13.392Z,18.28
2023-05-09T02:42:40.134Z,18.26
2023-05-09T02:45:07.984Z,18.25
2023-05-09T02:47:35.770Z,18.26
2023-05-09T02:50:02.567Z,18.24
2023-05-09T02:52:29.207Z,18.20
2023-05-09T02:54:55.944Z,18.17
2023-05-09T02:57:23.112Z,18.17
2023-05-09T02:59:49.816Z,18.19
2023-05-09T03:02:16.747Z,18.20
2023-05-09T03:04:44.172Z,18.20
2023-05-09T03:07:10.815Z,18.17
2023-05-09T03:09:39.248Z,18.14
2023-05-09T03:12:08.292Z,18.11
2023-05-09T03:14:35.787Z,18.10
2023-05-09T03:17:02.635Z,18.11
2023-05-09T03:19:33.628Z,18.09
2023-05-09T03:22:00.336Z,18.08
2023-05-09T03:24:28.355Z,18.11
2023-05-09T03:26:55.313Z,18.12
2023-05-09T03:29:22.084Z,18.15
2023-05-09T03:31:48.938Z,18.11
2023-05-09T03:34:15.630Z,18.05
2023-05-09T03:36:46.316Z,18.03
2023-05-09T03:39:14.280Z,17.99
2023-05-09T03:41:44.239Z,17.97
2023-05-09T03:44:13.070Z,17.98
2023-05-09T03:46:39.784Z,17.95
2023-05-09T03:49:06.996Z,17.94
2023-05-09T03:51:33.841Z,17.96
2023-05-09T03:54:01.286Z,17.93
2023-05-09T03:56:28.796Z,17.92
2023-05-09T03:58:55.522Z,17.90
2023-05-09T04:01:22.464Z,17.80
2023-05-09T04:03:49.306Z,17.76
2023-05-09T04:06:16.559Z,17.77
2023-05-09T04:08:44.662Z,17.77
2023-05-09T04:11:11.290Z,17.79
2023-05-09T04:13:39.608Z,17.80
2023-05-09T04:16:13.382Z,17.80
2023-05-09T04:18:42.356Z,17.80
2023-05-09T04:21:09.503Z,17.78
2023-05-09T04:23:36.965Z,17.74
2023-05-09T04:26:03.763Z,17.68
2023-05-09T04:28:30.769Z,17.69
2023-05-09T04:30:58.260Z,17.74
2023-05-09T04:33:25.079Z,17.79
2023-05-09T04:35:52.358Z,17.81
2023-05-09T04:38:19.345Z,17.76
2023-05-09T04:40:46.265Z,17.74
2023-05-09T04:43:12.965Z,17.76
2023-05-09T04:45:40.788Z,17.77
2023-05-09T04:48:07.798Z,17.75
2023-05-09T04:50:34.636Z,17.75
2023-05-09T04:53:03.424Z,17.80
2023-05-09T04:55:30.252Z,17.85
2023-05-09T04:57:57.169Z,17.90
2023-05-09T05:00:24.228Z,17.94
2023-05-09T05:02:51.392Z,17.96
2023-05-09T05:05:24.602Z,17.99
2023-05-09T05:07:54.258Z,18.03
2023-05-09T05:10:22.218Z,18.01
2023-05-09T05:12:53.022Z,18.00
2023-05-09T05:15:19.768Z,17.99
2023-05-09T05:17:47.873Z,18.02
2023-05-09T05:20:22.104Z,18.02
2023-05-09T05:22:49.419Z,18.00
2023-05-09T05:25:17.801Z,17.95
2023-05-09T05:27:45.908Z,17.95
2023-05-09T05:30:15.590Z,17.95
2023-05-09T05:32:43.788Z,17.97
2023-05-09T05:35:12.156Z,17.97
2023-05-09T05:37:39.947Z,17.98
2023-05-09T05:40:08.800Z,18.00
2023-05-09T05:42:36.522Z,18.02
2023-05-09T05:45:06.260Z,18.04
2023-05-09T05:47:37.091Z,18.04
2023-05-09T05:50:11.639Z,18.05
2023-05-09T05:52:41.986Z,18.08
2023-05-09T05:55:11.540Z,18.13
2023-05-09T05:57:39.142Z,18.16
2023-05-09T06:00:11.388Z,18.19
2023-05-09T06:02:45.474Z,18.26
2023-05-09T06:05:17.670Z,18.34
2023-05-09T06:07:44.450Z,18.38
2023-05-09T06:10:11.364Z,18.37
2023-05-09T06:12:38.360Z,18.37
2023-05-09T06:15:07.168Z,18.40
2023-05-09T06:17:36.096Z,18.42
2023-05-09T06:20:02.802Z,18.44
2023-05-09T06:22:29.562Z,18.45
2023-05-09T06:24:56.184Z,18.47
2023-05-09T06:27:22.818Z,18.46
2023-05-09T06:29:49.413Z,18.46
2023-05-09T06:32:18.807Z,18.42
2023-05-09T06:34:45.572Z,18.40
2023-05-09T06:37:12.158Z,18.43
2023-05-09T06:39:38.837Z,18.45
2023-05-09T06:42:05.627Z,18.47
2023-05-09T06:44:33.367Z,18.48
2023-05-09T06:46:59.992Z,18.53
2023-05-09T06:49:26.861Z,18.56
2023-05-09T06:51:53.426Z,18.57
2023-05-09T06:54:20.060Z,18.56
2023-05-09T06:56:46.666Z,18.58
2023-05-09T06:59:13.572Z,18.62
2023-05-09T07:01:41.186Z,18.65
2023-05-09T07:04:08.014Z,18.66
2023-05-09T07:06:34.633Z,18.68
2023-05-09T07:09:01.280Z,18.73
2023-05-09T07:11:27.985Z,18.80
2023-05-09T07:13:54.548Z,18.88
2023-05-09T07:16:23.156Z,18.96
2023-05-09T07:18:49.862Z,19.03
2023-05-09T07:21:16.668Z,19.13
2023-05-09T07:23:43.348Z,19.20
2023-05-09T07:26:10.033Z,19.20
2023-05-09T07:28:36.781Z,19.19
2023-05-09T07:31:03.533Z,19.20
2023-05-09T07:33:30.238Z,19.25
2023-05-09T07:35:59.304Z,19.33
2023-05-09T07:38:26.474Z,19.41
2023-05-09T07:40:53.428Z,19.47
2023-05-09T07:43:20.037Z,19.54
2023-05-09T07:45:47.255Z,19.63
2023-05-09T07:48:13.866Z,19.69
2023-05-09T07:50:40.437Z,19.74
2023-05-09T07:53:07.024Z,19.79
2023-05-09T07:55:33.640Z,19.84
2023-05-09T07:58:00.323Z,19.95
2023-05-09T08:00:26.897Z,20.15
2023-05-09T08:02:54.349Z,20.32
2023-05-09T08:05:21.134Z,20.46
2023-05-09T08:07:47.829Z,20.63
2023-05-09T08:10:14.637Z,20.83
2023-05-09T08:12:41.353Z,20.99
2023-05-09T08:15:08.404Z,21.14
2023-05-09T08:17:35.143Z,21.33
2023-05-09T08:20:01.923Z,21.48
2023-05-09T08:22:28.528Z,21.58
2023-05-09T08:24:55.136Z,21.49
2023-05-09T08:27:21.863Z,21.45
2023-05-09T08:29:48.473Z,21.50
2023-05-09T08:32:15.093Z,21.55
2023-05-09T08:34:41.936Z,21.59
2023-05-09T08:37:08.666Z,21.62
2023-05-09T08:39:35.318Z,21.72
2023-05-09T08:42:02.589Z,21.98
2023-05-09T08:44:30.679Z,22.30
2023-05-09T08:47:01.591Z,22.64
2023-05-09T08:49:28.897Z,22.70
2023-05-09T08:51:56.676Z,22.70
2023-05-09T08:54:25.813Z,22.77
2023-05-09T08:56:52.607Z,22.89
2023-05-09T08:59:19.730Z,22.91
2023-05-09T09:01:47.218Z,23.00
2023-05-09T09:04:14.278Z,23.12
2023-05-09T09:06:41.780Z,23.23
2023-05-09T09:09:09.279Z,23.21
2023-05-09T09:11:37.186Z,23.35
2023-05-09T09:14:13.245Z,23.49
2023-05-09T09:16:43.617Z,23.59
2023-05-09T09:19:15.614Z,23.76
2023-05-09T09:21:45.174Z,23.91
2023-05-09T09:24:20.140Z,24.18
2023-05-09T09:26:48.761Z,24.45
2023-05-09T09:29:17.196Z,24.63
2023-05-09T09:31:46.344Z,24.99
2023-05-09T09:34:19.185Z,25.26
2023-05-09T09:36:46.996Z,25.15
2023-05-09T09:39:14.358Z,25.03
2023-05-09T09:41:42.381Z,24.91
2023-05-09T09:44:11.407Z,24.93
2023-05-09T09:46:46.450Z,24.96
2023-05-09T09:49:15.032Z,25.07
2023-05-09T09:51:42.600Z,24.91
2023-05-09T09:54:10.908Z,24.70
2023-05-09T09:56:47.653Z,24.55
2023-05-09T09:59:19.034Z,24.54
2023-05-09T10:02:07.570Z,24.64
2023-05-09T10:04:39.161Z,24.70
2023-05-09T10:07:08.486Z,24.90
2023-05-09T10:09:38.017Z,25.19
2023-05-09T10:12:07.093Z,25.42
2023-05-09T10:14:35.965Z,25.31
2023-05-09T10:17:05.292Z,25.39
2023-05-09T10:19:33.106Z,25.57
2023-05-09T10:22:10.916Z,25.80
2023-05-09T10:24:47.192Z,26.09
2023-05-09T10:27:15.680Z,26.01
2023-05-09T10:29:48.358Z,25.75
2023-05-09T10:32:27.694Z,25.79
2023-05-09T10:35:02.196Z,25.98
2023-05-09T10:37:30.949Z,26.19
2023-05-09T10:40:00.200Z,26.02
2023-05-09T10:42:28.517Z,25.80
2023-05-09T10:44:56.379Z,25.80
2023-05-09T10:47:27.010Z,25.86
2023-05-09T10:49:54.929Z,25.67
2023-05-09T10:52:22.775Z,25.40
2023-05-09T10:55:04.158Z,25.15
2023-05-09T10:57:32.227Z,25.02
2023-05-09T11:00:00.601Z,25.00
2023-05-09T11:02:31.064Z,24.88
2023-05-09T11:05:15.985Z,24.69
2023-05-09T11:07:43.572Z,24.89
2023-05-09T11:10:15.908Z,24.89
2023-05-09T11:13:00.240Z,24.72
2023-05-09T11:15:30.270Z,24.61
2023-05-09T11:18:12.371Z,24.56
2023-05-09T11:20:49.215Z,24.54
2023-05-09T11:23:17.631Z,24.60
2023-05-09T11:25:47.776Z,24.85
2023-05-09T11:28:35.763Z,25.07
2023-05-09T11:31:14.572Z,25.05
2023-05-09T11:33:43.424Z,24.92
2023-05-09T11:36:30.292Z,24.86
2023-05-09T11:39:10.610Z,24.88
2023-05-09T11:41:43.483Z,25.23
2023-05-09T11:44:15.447Z,25.54
2023-05-09T11:46:42.870Z,25.81
2023-05-09T11:49:11.964Z,25.95
2023-05-09T11:51:39.862Z,25.86
2023-05-09T11:54:07.957Z,25.96
2023-05-09T11:56:40.866Z,26.13
2023-05-09T11:59:08.045Z,25.81
2023-05-09T12:01:36.798Z,25.41
2023-05-09T12:04:07.902Z,25.31
2023-05-09T12:06:34.612Z,25.22
2023-05-09T12:09:01.558Z,24.96
2023-05-09T12:11:32.563Z,24.84
2023-05-09T12:13:59.200Z,24.94
2023-05-09T12:16:26.059Z,25.08
2023-05-09T12:18:53.305Z,25.38
2023-05-09T12:21:21.736Z,25.77
2023-05-09T12:23:50.917Z,25.90
2023-05-09T12:26:19.122Z,25.81
2023-05-09T12:28:45.988Z,25.87
2023-05-09T12:31:13.068Z,25.90
2023-05-09T12:33:40.227Z,25.92
2023-05-09T12:36:08.723Z,25.94
2023-05-09T12:38:35.476Z,25.65
2023-05-09T12:41:04.200Z,25.62
2023-05-09T12:43:32.733Z,25.70
2023-05-09T12:46:00.564Z,25.58
2023-05-09T12:48:27.652Z,25.47
2023-05-09T12:50:54.413Z,25.25
2023-05-09T12:53:31.206Z,25.03
2023-05-09T12:56:05.536Z,24.84
2023-05-09T12:58:33.616Z,24.63
2023-05-09T13:01:04.489Z,24.48
2023-05-09T13:03:37.849Z,24.47
2023-05-09T13:06:06.705Z,24.30
2023-05-09T13:08:33.401Z,24.18
2023-05-09T13:11:11.859Z,24.22
2023-05-09T13:13:42.643Z,24.52
2023-05-09T13:16:10.733Z,24.65
2023-05-09T13:18:38.349Z,24.75
2023-05-09T13:21:05.035Z,24.58
2023-05-09T13:23:31.661Z,24.38
2023-05-09T13:25:58.391Z,24.41
2023-05-09T13:28:25.028Z,24.63
2023-05-09T13:30:51.769Z,24.79
2023-05-09T13:33:25.656Z,24.86
2023-05-09T13:35:53.708Z,24.93
2023-05-09T13:38:20.427Z,25.03
2023-05-09T13:40:47.011Z,25.12
2023-05-09T13:43:13.672Z,25.32
2023-05-09T13:45:40.274Z,25.50
2023-05-09T13:48:07.029Z,25.51
2023-05-09T13:50:34.379Z,25.54
2023-05-09T13:53:01.167Z,25.57
2023-05-09T13:55:27.921Z,25.70
2023-05-09T13:57:55.108Z,25.89
2023-05-09T14:00:22.556Z,26.03
2023-05-09T14:02:49.233Z,26.06
2023-05-09T14:05:17.078Z,25.96
2023-05-09T14:07:45.193Z,26.04
2023-05-09T14:10:12.864Z,26.07
2023-05-09T14:12:40.690Z,25.93
2023-05-09T14:15:08.708Z,25.67
2023-05-09T14:17:35.673Z,25.36
2023-05-09T14:20:02.409Z,25.06
2023-05-09T14:22:29.151Z,24.91
2023-05-09T14:24:57.504Z,24.64
2023-05-09T14:27:25.258Z,24.39
2023-05-09T14:29:52.221Z,24.16
2023-05-09T14:32:18.884Z,24.07
2023-05-09T14:34:46.006Z,24.09
2023-05-09T14:37:15.784Z,24.20
2023-05-09T14:39:45.284Z,24.35
2023-05-09T14:42:14.129Z,24.46
2023-05-09T14:44:41.698Z,24.53
2023-05-09T14:47:09.806Z,24.48
2023-05-09T14:49:37.894Z,24.35
2023-05-09T14:52:04.688Z,24.33
2023-05-09T14:54:31.698Z,24.37
2023-05-09T14:56:59.612Z,24.32
2023-05-09T14:59:26.340Z,24.33
2023-05-09T15:01:53.370Z,24.42
2023-05-09T15:04:19.973Z,24.53
2023-05-09T15:06:46.605Z,24.62
2023-05-09T15:09:14.006Z,24.69
2023-05-09T15:11:48.392Z,24.67
2023-05-09T15:14:16.801Z,24.56
2023-05-09T15:16:44.368Z,24.36
2023-05-09T15:19:11.322Z,24.20
2023-05-09T15:21:38.200Z,24.21
2023-05-09T15:24:05.139Z,24.17
2023-05-09T15:26:32.359Z,24.00
2023-05-09T15:28:59.185Z,23.84
2023-05-09T15:31:26.059Z,23.73
2023-05-09T15:33:52.923Z,23.61
2023-05-09T15:36:19.661Z,23.55
2023-05-09T15:38:49.728Z,23.52
2023-05-09T15:41:17.082Z,23.42
2023-05-09T15:43:44.004Z,23.26
2023-05-09T15:46:11.013Z,23.13
2023-05-09T15:48:37.874Z,23.05
2023-05-09T15:51:04.773Z,22.96
2023-05-09T15:53:31.628Z,22.86
2023-05-09T15:55:58.254Z,22.75
2023-05-09T15:58:25.106Z,22.62
2023-05-09T16:00:52.090Z,22.56
2023-05-09T16:03:19.185Z,22.52
2023-05-09T16:05:46.293Z,22.55
2023-05-09T16:08:13.126Z,22.57
2023-05-09T16:10:40.620Z,22.52
2023-05-09T16:13:07.971Z,22.43
2023-05-09T16:15:35.352Z,22.38
2023-05-09T16:18:02.311Z,22.33
2023-05-09T16:20:29.629Z,22.32
2023-05-09T16:22:56.316Z,22.26
2023-05-09T16:25:23.025Z,22.19
2023-05-09T16:27:49.687Z,22.17
2023-05-09T16:30:16.950Z,22.19
2023-05-09T16:32:43.908Z,22.23
2023-05-09T16:35:10.975Z,22.25
2023-05-09T16:37:37.734Z,22.27
2023-05-09T16:40:04.920Z,22.29
2023-05-09T16:42:31.821Z,22.28
2023-05-09T16:44:58.519Z,22.22
2023-05-09T16:47:25.348Z,22.14
2023-05-09T16:49:52.155Z,22.06
2023-05-09T16:52:18.953Z,21.98
2023-05-09T16:54:45.559Z,21.86
2023-05-09T16:57:12.810Z,21.75
2023-05-09T16:59:39.783Z,21.69
2023-05-09T17:02:06.495Z,21.68
2023-05-09T17:04:34.692Z,21.64
2023-05-09T17:07:02.765Z,21.60
2023-05-09T17:09:29.608Z,21.55
2023-05-09T17:11:56.512Z,21.53
2023-05-09T17:14:23.165Z,21.50
2023-05-09T17:16:50.001Z,21.41
2023-05-09T17:19:17.076Z,21.35
2023-05-09T17:21:44.357Z,21.31
2023-05-09T17:24:11.092Z,21.26
2023-05-09T17:26:38.844Z,21.19
2023-05-09T17:29:06.095Z,21.18
2023-05-09T17:31:32.843Z,21.15
2023-05-09T17:33:59.450Z,21.11
2023-05-09T17:36:26.280Z,21.08
2023-05-09T17:38:52.881Z,21.02
2023-05-09T17:41:19.531Z,20.99
2023-05-09T17:43:46.163Z,20.94
2023-05-09T17:46:14.949Z,20.92
2023-05-09T17:48:42.115Z,20.92
2023-05-09T17:51:09.139Z,20.93
2023-05-09T17:53:35.761Z,20.91
2023-05-09T17:56:02.553Z,20.88
2023-05-09T17:58:29.985Z,20.82
2023-05-09T18:00:58.713Z,20.74
2023-05-09T18:03:27.204Z,20.69
2023-05-09T18:05:54.024Z,20.63
2023-05-09T18:08:20.649Z,20.59
2023-05-09T18:10:47.585Z,20.57
2023-05-09T18:13:14.324Z,20.57
2023-05-09T18:15:41.322Z,20.59
2023-05-09T18:18:08.164Z,20.57
2023-05-09T18:20:35.027Z,20.53
2023-05-09T18:23:01.788Z,20.46
2023-05-09T18:25:28.508Z,20.42
2023-05-09T18:27:56.571Z,20.40
2023-05-09T18:30:23.318Z,20.39
2023-05-09T18:32:49.944Z,20.36
2023-05-09T18:35:16.847Z,20.34
2023-05-09T18:37:43.901Z,20.33
2023-05-09T18:40:15.336Z,20.36
2023-05-09T18:42:42.656Z,20.37
2023-05-09T18:45:10.389Z,20.39
2023-05-09T18:47:37.999Z,20.37
2023-05-09T18:50:07.116Z,20.34
2023-05-09T18:52:34.398Z,20.35
2023-05-09T18:55:00.999Z,20.35
2023-05-09T18:57:28.319Z,20.34
2023-05-09T18:59:56.066Z,20.29
2023-05-09T19:02:23.641Z,20.29
2023-05-09T19:04:51.571Z,20.30
2023-05-09T19:07:18.506Z,20.28
2023-05-09T19:09:45.785Z,20.28
2023-05-09T19:12:12.491Z,20.29
2023-05-09T19:14:39.151Z,20.26
2023-05-09T19:17:06.043Z,20.22
2023-05-09T19:19:33.074Z,20.21
2023-05-09T19:22:01.573Z,20.21
2023-05-09T19:24:28.150Z,20.19
2023-05-09T19:26:55.120Z,20.15
2023-05-09T19:29:21.757Z,20.09
2023-05-09T19:31:48.449Z,20.02
2023-05-09T19:34:15.434Z,19.97
2023-05-09T19:36:42.061Z,19.93
2023-05-09T19:39:09.211Z,19.92
2023-05-09T19:41:35.977Z,19.92
2023-05-09T19:44:02.727Z,19.90
2023-05-09T19:46:29.572Z,19.88
2023-05-09T19:48:56.324Z,19.84
2023-05-09T19:51:22.975Z,19.82
2023-05-09T19:53:49.720Z,19.77
2023-05-09T19:56:16.643Z,19.78
2023-05-09T19:58:43.503Z,19.72
2023-05-09T20:01:10.355Z,19.69
2023-05-09T20:03:38.821Z,19.68
2023-05-09T20:06:05.844Z,19.64
2023-05-09T20:08:32.532Z,19.60
2023-05-09T20:11:00.138Z,19.61
2023-05-09T20:13:27.514Z,19.61
2023-05-09T20:15:54.392Z,19.60
2023-05-09T20:18:21.138Z,19.56
2023-05-09T20:20:48.087Z,19.45
2023-05-09T20:23:14.668Z,19.39
2023-05-09T20:25:41.253Z,19.31
2023-05-09T20:28:11.591Z,19.18
2023-05-09T20:30:38.791Z,19.09
2023-05-09T20:33:05.370Z,19.06
2023-05-09T20:35:32.227Z,19.05
2023-05-09T20:37:58.840Z,19.02
2023-05-09T20:40:25.749Z,18.99
2023-05-09T20:42:52.763Z,18.99
2023-05-09T20:45:19.565Z,19.00
2023-05-09T20:47:46.269Z,18.94
2023-05-09T20:50:12.957Z,18.87
2023-05-09T20:52:39.586Z,18.82
2023-05-09T20:55:06.418Z,18.76
2023-05-09T20:57:33.085Z,18.75
2023-05-09T20:59:59.622Z,18.76
2023-05-09T21:02:26.204Z,18.75
2023-05-09T21:04:52.804Z,18.71
2023-05-09T21:07:19.469Z,18.66
2023-05-09T21:09:47.230Z,18.63
2023-05-09T21:12:13.862Z,18.63
2023-05-09T21:14:40.920Z,18.59
2023-05-09T21:17:07.564Z,18.60
2023-05-09T21:19:34.240Z,18.58
2023-05-09T21:22:01.320Z,18.55
2023-05-09T21:24:27.881Z,18.50
2023-05-09T21:26:54.498Z,18.45
2023-05-09T21:29:21.130Z,18.42
2023-05-09T21:31:47.718Z,18.39
2023-05-09T21:34:14.274Z,18.34
2023-05-09T21:36:41.048Z,18.27
2023-05-09T21:39:11.688Z,18.13
2023-05-09T21:41:40.130Z,18.05
2023-05-09T21:44:11.982Z,17.96
2023-05-09T21:46:38.882Z,17.90
2023-05-09T21:49:05.709Z,17.89
2023-05-09T21:51:33.525Z,17.85
2023-05-09T21:54:01.111Z,17.80
2023-05-09T21:56:27.641Z,17.78
2023-05-09T21:58:54.157Z,17.78
2023-05-09T22:01:21.236Z,17.69
2023-05-09T22:03:47.908Z,17.64
2023-05-09T22:06:14.666Z,17.65
2023-05-09T22:08:41.196Z,17.68
2023-05-09T22:11:07.830Z,17.70
2023-05-09T22:13:36.367Z,17.74
2023-05-09T22:16:04.069Z,17.78
2023-05-09T22:18:31.398Z,17.81
2023-05-09T22:20:58.008Z,17.78
2023-05-09T22:23:24.731Z,17.76
2023-05-09T22:25:51.346Z,17.75
2023-05-09T22:28:17.985Z,17.79
2023-05-09T22:30:44.586Z,17.80
2023-05-09T22:33:11.271Z,17.79
2023-05-09T22:35:37.992Z,17.74
2023-05-09T22:38:04.512Z,17.75
2023-05-09T22:40:31.125Z,17.74
2023-05-09T22:42:57.696Z,17.75
2023-05-09T22:45:24.255Z,17.76
2023-05-09T22:47:50.952Z,17.74
2023-05-09T22:50:17.908Z,17.73
2023-05-09T22:52:45.021Z,17.69
2023-05-09T22:55:11.800Z,17.64
2023-05-09T22:57:38.495Z,17.61
2023-05-09T23:00:06.195Z,17.59
2023-05-09T23:02:32.967Z,17.58
2023-05-09T23:04:59.987Z,17.55
2023-05-09T23:07:26.547Z,17.53
2023-05-09T23:09:53.201Z,17.53
2023-05-09T23:12:19.855Z,17.49
2023-05-09T23:14:46.839Z,17.45
2023-05-09T23:17:13.488Z,17.40
2023-05-09T23:19:40.072Z,17.37
2023-05-09T23:22:06.728Z,17.37
2023-05-09T23:24:33.360Z,17.36
2023-05-09T23:26:59.972Z,17.36
2023-05-09T23:29:26.796Z,17.36
2023-05-09T23:31:53.592Z,17.35
2023-05-09T23:34:20.547Z,17.35
2023-05-09T23:36:47.127Z,17.35
2023-05-09T23:39:15.579Z,17.36
2023-05-09T23:41:42.155Z,17.36
2023-05-09T23:44:09.108Z,17.35
2023-05-09T23:46:35.915Z,17.35
2023-05-09T23:49:02.606Z,17.35
2023-05-09T23:51:29.212Z,17.32
2023-05-09T23:53:55.797Z,17.29
2023-05-09T23:56:22.527Z,17.28
2023-05-09T23:58:49.193Z,17.27
